Falfurrias, Brooks County Airport (KBKS)

NameBrooks County Airport
CityFalfurrias
CountryUnited States
ICAOKBKS
IATA
Altitude34 m
CoordinatesGoogle Map
Live Air TrafficLiveATC.net
METARKBKS 161655Z AUTO 00000KT 10SM CLR 19/M05 A3034 RMK AO1 T01861046
2018-12-16 16:55:00 Wind: North (0°) 0 m/s - Visibility: 16093.4 m - Temperature: 19 °C - Dew point: -5 °C - Humidity: 19.3% - Pressure: 1027.43 hPa

Sorry, no flights used the airport in this database.